createdAt,value
2022-11-19T00:01:26.244Z,70.32
2022-11-19T00:03:53.553Z,69.89
2022-11-19T00:06:26.403Z,69.65
2022-11-19T00:08:53.737Z,70.33
2022-11-19T00:11:42.884Z,69.85
2022-11-19T00:14:12.718Z,69.70
2022-11-19T00:16:39.744Z,69.22
2022-11-19T00:19:06.445Z,69.54
2022-11-19T00:21:33.098Z,69.35
2022-11-19T00:23:59.796Z,69.52
2022-11-19T00:26:26.940Z,69.02
2022-11-19T00:28:54.979Z,68.70
2022-11-19T00:31:21.589Z,68.63
2022-11-19T00:33:50.463Z,68.49
2022-11-19T00:36:17.652Z,68.73
2022-11-19T00:38:44.376Z,68.17
2022-11-19T00:41:11.425Z,68.28
2022-11-19T00:43:47.366Z,68.24
2022-11-19T00:46:21.927Z,68.05
2022-11-19T00:48:50.791Z,68.07
2022-11-19T00:51:20.255Z,67.88
2022-11-19T00:53:47.205Z,67.75
2022-11-19T00:56:18.310Z,67.93
2022-11-19T00:58:45.945Z,67.83
2022-11-19T01:01:15.401Z,67.06
2022-11-19T01:03:45.280Z,67.37
2022-11-19T01:06:18.644Z,66.96
2022-11-19T01:08:46.301Z,67.59
2022-11-19T01:11:18.501Z,67.38
2022-11-19T01:13:46.193Z,67.55
2022-11-19T01:16:20.173Z,66.75
2022-11-19T01:18:49.662Z,67.28
2022-11-19T01:21:18.725Z,67.16
2022-11-19T01:23:46.344Z,67.73
2022-11-19T01:26:14.996Z,68.07
2022-11-19T01:28:42.778Z,67.48
2022-11-19T01:31:21.349Z,67.12
2022-11-19T01:33:50.451Z,67.11
2022-11-19T01:36:21.875Z,66.96
2022-11-19T01:38:52.002Z,67.13
2022-11-19T01:41:31.017Z,67.18
2022-11-19T01:44:05.491Z,66.93
2022-11-19T01:46:36.468Z,67.35
2022-11-19T01:49:19.396Z,67.57
2022-11-19T01:51:55.727Z,67.65
2022-11-19T01:54:40.915Z,67.18
2022-11-19T01:57:14.418Z,66.99
2022-11-19T01:59:43.545Z,66.52
2022-11-19T02:02:10.229Z,67.08
2022-11-19T02:04:36.821Z,67.29
2022-11-19T02:07:04.280Z,67.07
2022-11-19T02:09:32.769Z,67.11
2022-11-19T02:12:08.316Z,67.11
2022-11-19T02:15:15.646Z,67.62
2022-11-19T02:18:10.908Z,67.23
2022-11-19T02:21:20.591Z,67.38
2022-11-19T02:24:21.709Z,67.73
2022-11-19T02:27:05.635Z,67.68
2022-11-19T02:29:32.024Z,67.37
2022-11-19T02:32:28.425Z,67.53
2022-11-19T02:35:44.865Z,67.36
2022-11-19T02:38:26.445Z,67.36
2022-11-19T02:41:23.017Z,67.56
2022-11-19T02:44:17.672Z,67.33
2022-11-19T02:46:49.638Z,67.52
2022-11-19T02:49:22.275Z,67.25
2022-11-19T02:51:50.455Z,67.29
2022-11-19T02:54:17.811Z,67.02
2022-11-19T02:56:51.955Z,66.74
2022-11-19T03:00:11.799Z,68.10
2022-11-19T03:03:31.992Z,67.91
2022-11-19T03:06:09.877Z,67.97
2022-11-19T03:08:36.707Z,67.93
2022-11-19T03:11:10.233Z,67.49
2022-11-19T03:14:29.602Z,67.24
2022-11-19T03:17:06.582Z,67.17
2022-11-19T03:19:43.096Z,67.14
2022-11-19T03:22:26.780Z,67.04
2022-11-19T03:25:12.197Z,66.77
2022-11-19T03:27:46.417Z,66.92
2022-11-19T03:30:16.480Z,66.62
2022-11-19T03:33:00.866Z,66.84
2022-11-19T03:35:35.075Z,67.10
2022-11-19T03:38:07.319Z,67.33
2022-11-19T03:40:35.391Z,67.70
2022-11-19T03:43:08.075Z,67.65
2022-11-19T03:45:43.221Z,67.79
2022-11-19T03:48:15.383Z,66.69
2022-11-19T03:50:53.426Z,67.12
2022-11-19T03:53:22.105Z,66.84
2022-11-19T03:56:00.270Z,66.92
2022-11-19T03:58:27.440Z,67.02
2022-11-19T04:00:54.204Z,67.12
2022-11-19T04:03:20.707Z,66.79
2022-11-19T04:05:47.609Z,66.85
2022-11-19T04:08:14.265Z,67.03
2022-11-19T04:10:40.753Z,67.33
2022-11-19T04:13:07.212Z,67.17
2022-11-19T04:15:33.706Z,67.09
2022-11-19T04:18:00.144Z,67.20
2022-11-19T04:20:26.674Z,66.38
2022-11-19T04:22:53.166Z,66.82
2022-11-19T04:25:19.677Z,66.91
2022-11-19T04:27:46.955Z,66.83
2022-11-19T04:30:14.785Z,66.72
2022-11-19T04:32:42.277Z,66.41
2022-11-19T04:35:10.052Z,66.93
2022-11-19T04:37:36.809Z,66.76
2022-11-19T04:40:03.884Z,67.17
2022-11-19T04:42:30.310Z,66.45
2022-11-19T04:44:56.868Z,66.36
2022-11-19T04:47:23.290Z,66.85
2022-11-19T04:49:49.794Z,65.98
2022-11-19T04:52:16.273Z,66.37
2022-11-19T04:54:42.777Z,65.85
2022-11-19T04:57:09.247Z,66.43
2022-11-19T04:59:35.762Z,66.66
2022-11-19T05:02:02.528Z,67.00
2022-11-19T05:04:29.013Z,66.91
2022-11-19T05:06:55.523Z,67.47
2022-11-19T05:09:22.391Z,67.18
2022-11-19T05:11:48.962Z,67.48
2022-11-19T05:14:15.433Z,67.13
2022-11-19T05:16:41.911Z,66.78
2022-11-19T05:19:08.375Z,66.63
2022-11-19T05:21:34.909Z,66.57
2022-11-19T05:24:01.417Z,67.34
2022-11-19T05:26:27.898Z,67.20
2022-11-19T05:28:54.365Z,67.43
2022-11-19T05:31:21.003Z,67.14
2022-11-19T05:33:47.481Z,66.73
2022-11-19T05:36:14.120Z,67.07
2022-11-19T05:38:41.118Z,66.80
2022-11-19T05:41:07.609Z,66.71
2022-11-19T05:43:34.162Z,67.14
2022-11-19T05:46:02.370Z,66.88
2022-11-19T05:48:30.215Z,66.73
2022-11-19T05:50:56.957Z,66.13
2022-11-19T05:53:23.460Z,66.57
2022-11-19T05:55:49.900Z,66.69
2022-11-19T05:58:16.372Z,66.49
2022-11-19T06:00:42.881Z,66.29
2022-11-19T06:03:10.800Z,65.57
2022-11-19T06:05:40.487Z,66.35
2022-11-19T06:08:07.366Z,66.09
2022-11-19T06:10:33.979Z,65.79
2022-11-19T06:13:00.453Z,66.54
2022-11-19T06:15:26.960Z,65.76
2022-11-19T06:17:53.439Z,65.89
2022-11-19T06:20:19.901Z,66.40
2022-11-19T06:22:46.324Z,66.11
2022-11-19T06:25:13.296Z,66.04
2022-11-19T06:27:39.755Z,66.73
2022-11-19T06:30:07.857Z,66.42
2022-11-19T06:32:34.449Z,66.19
2022-11-19T06:35:01.058Z,66.21
2022-11-19T06:37:27.532Z,65.43
2022-11-19T06:39:55.285Z,65.86
2022-11-19T06:42:38.194Z,65.99
2022-11-19T06:45:12.130Z,66.18
2022-11-19T06:47:41.198Z,65.84
2022-11-19T06:50:10.478Z,65.91
2022-11-19T06:52:37.360Z,65.98
2022-11-19T06:55:04.716Z,65.94
2022-11-19T06:57:31.340Z,66.00
2022-11-19T06:59:57.851Z,65.93
2022-11-19T07:02:24.325Z,65.73
2022-11-19T07:04:50.829Z,65.27
2022-11-19T07:07:17.720Z,65.43
2022-11-19T07:09:44.476Z,65.72
2022-11-19T07:12:10.939Z,65.60
2022-11-19T07:14:37.414Z,65.20
2022-11-19T07:17:05.240Z,65.78
2022-11-19T07:19:31.815Z,65.91
2022-11-19T07:21:58.272Z,65.79
2022-11-19T07:24:24.783Z,65.74
2022-11-19T07:26:51.299Z,66.06
2022-11-19T07:29:18.421Z,66.06
2022-11-19T07:31:46.830Z,65.89
2022-11-19T07:34:13.332Z,65.69
2022-11-19T07:36:39.863Z,65.89
2022-11-19T07:39:06.516Z,66.34
2022-11-19T07:41:52.308Z,66.66
2022-11-19T07:44:19.194Z,67.15
2022-11-19T07:46:45.875Z,66.49
2022-11-19T07:49:12.376Z,67.13
2022-11-19T07:51:38.909Z,66.38
2022-11-19T07:54:05.658Z,66.99
2022-11-19T07:56:32.327Z,66.69
2022-11-19T07:59:02.229Z,66.17
2022-11-19T08:01:29.351Z,66.30
2022-11-19T08:03:56.922Z,65.84
2022-11-19T08:06:27.069Z,66.00
2022-11-19T08:08:58.325Z,65.87
2022-11-19T08:11:25.313Z,65.99
2022-11-19T08:13:52.771Z,65.57
2022-11-19T08:16:38.875Z,65.81
2022-11-19T08:19:12.462Z,65.53
2022-11-19T08:21:45.425Z,66.05
2022-11-19T08:24:14.204Z,65.60
2022-11-19T08:26:42.562Z,65.92
2022-11-19T08:29:15.726Z,66.12
2022-11-19T08:31:44.940Z,66.36
2022-11-19T08:34:11.494Z,66.20
2022-11-19T08:36:37.984Z,66.22
2022-11-19T08:39:04.586Z,65.42
2022-11-19T08:41:49.621Z,65.96
2022-11-19T08:44:17.803Z,65.25
2022-11-19T08:46:44.773Z,65.61
2022-11-19T08:49:12.360Z,64.50
2022-11-19T08:51:39.415Z,64.32
2022-11-19T08:54:06.170Z,64.30
2022-11-19T08:56:33.157Z,64.34
2022-11-19T08:59:02.781Z,64.25
2022-11-19T09:01:29.889Z,64.91
2022-11-19T09:03:56.372Z,64.44
2022-11-19T09:06:23.274Z,64.10
2022-11-19T09:08:49.741Z,64.70
2022-11-19T09:11:19.904Z,64.84
2022-11-19T09:13:46.776Z,64.59
2022-11-19T09:16:13.793Z,64.75
2022-11-19T09:18:42.087Z,65.01
2022-11-19T09:21:11.595Z,65.04
2022-11-19T09:23:39.324Z,65.09
2022-11-19T09:26:10.740Z,64.64
2022-11-19T09:28:37.229Z,65.59
2022-11-19T09:31:17.243Z,64.88
2022-11-19T09:33:48.370Z,65.25
2022-11-19T09:36:15.738Z,65.20
2022-11-19T09:38:42.609Z,64.51
2022-11-19T09:41:17.993Z,64.87
2022-11-19T09:44:18.689Z,63.92
2022-11-19T09:46:45.260Z,64.70
2022-11-19T09:49:21.865Z,64.13
2022-11-19T09:51:57.807Z,63.34
2022-11-19T09:54:25.519Z,64.42
2022-11-19T09:57:00.376Z,64.42
2022-11-19T09:59:40.817Z,64.08
2022-11-19T10:02:21.823Z,64.04
2022-11-19T10:04:51.060Z,64.24
2022-11-19T10:07:30.972Z,63.88
2022-11-19T10:10:42.174Z,64.01
2022-11-19T10:13:30.336Z,64.06
2022-11-19T10:16:29.277Z,63.99
2022-11-19T10:19:38.878Z,63.52
2022-11-19T10:22:16.740Z,64.59
2022-11-19T10:25:03.611Z,63.64
2022-11-19T10:27:43.607Z,64.57
2022-11-19T10:30:19.262Z,64.38
2022-11-19T10:33:12.817Z,63.51
2022-11-19T10:35:48.313Z,63.79
2022-11-19T10:38:33.876Z,63.53
2022-11-19T10:41:18.849Z,64.48
2022-11-19T10:43:57.390Z,64.10
2022-11-19T10:46:28.566Z,64.04
2022-11-19T10:48:58.951Z,63.52
2022-11-19T10:51:33.416Z,62.90
2022-11-19T10:54:04.457Z,63.49
2022-11-19T10:56:42.136Z,63.13
2022-11-19T10:59:18.965Z,62.45
2022-11-19T11:01:55.858Z,63.45
2022-11-19T11:04:24.495Z,62.91
2022-11-19T11:06:55.089Z,63.95
2022-11-19T11:09:40.663Z,62.48
2022-11-19T11:12:37.070Z,63.75
2022-11-19T11:15:22.306Z,63.55
2022-11-19T11:18:02.564Z,63.40
2022-11-19T11:20:30.455Z,62.71
2022-11-19T11:23:18.042Z,61.21
2022-11-19T11:26:11.622Z,63.28
2022-11-19T11:29:22.884Z,62.45
2022-11-19T11:31:50.441Z,62.63
2022-11-19T11:34:25.882Z,61.29
2022-11-19T11:36:53.888Z,62.18
2022-11-19T11:39:44.183Z,61.42
2022-11-19T11:42:17.675Z,61.97
2022-11-19T11:45:22.780Z,61.49
2022-11-19T11:47:49.289Z,62.05
2022-11-19T11:50:25.077Z,61.14
2022-11-19T11:52:55.672Z,61.18
2022-11-19T11:55:24.933Z,61.76
2022-11-19T11:58:01.453Z,61.83
2022-11-19T12:00:29.821Z,61.58
2022-11-19T12:03:01.994Z,61.91
2022-11-19T12:06:02.221Z,61.96
2022-11-19T12:08:56.246Z,61.36
2022-11-19T12:11:55.155Z,61.81
2022-11-19T12:15:03.280Z,60.69
2022-11-19T12:18:06.626Z,61.46
2022-11-19T12:20:59.172Z,60.48
2022-11-19T12:23:57.728Z,61.06
2022-11-19T12:26:58.721Z,60.77
2022-11-19T12:29:49.914Z,61.08
2022-11-19T12:33:02.858Z,60.38
2022-11-19T12:36:04.876Z,61.38
2022-11-19T12:38:44.901Z,61.57
2022-11-19T12:41:30.101Z,60.56
2022-11-19T12:44:09.637Z,61.47
2022-11-19T12:47:08.240Z,61.22
2022-11-19T12:50:09.365Z,60.68
2022-11-19T12:53:13.038Z,61.20
2022-11-19T12:55:54.495Z,61.95
2022-11-19T12:58:45.805Z,61.91
2022-11-19T13:01:26.436Z,61.16
2022-11-19T13:04:26.283Z,60.79
2022-11-19T13:07:15.247Z,60.15
2022-11-19T13:09:48.815Z,60.67
2022-11-19T13:12:21.573Z,60.35
2022-11-19T13:14:56.656Z,60.37
2022-11-19T13:17:34.852Z,59.79
2022-11-19T13:20:07.576Z,60.22
2022-11-19T13:22:39.811Z,59.71
2022-11-19T13:25:25.102Z,59.63
2022-11-19T13:27:55.854Z,60.27
2022-11-19T13:30:29.423Z,60.16
2022-11-19T13:33:43.675Z,60.00
2022-11-19T13:36:26.843Z,59.78
2022-11-19T13:39:18.442Z,60.14
2022-11-19T13:42:15.333Z,60.70
2022-11-19T13:44:43.443Z,60.50
2022-11-19T13:47:27.671Z,60.57
2022-11-19T13:50:03.076Z,61.02
2022-11-19T13:52:52.667Z,61.13
2022-11-19T13:55:43.097Z,60.66
2022-11-19T13:58:26.761Z,60.42
2022-11-19T14:01:11.848Z,60.75
2022-11-19T14:04:36.019Z,60.46
2022-11-19T14:08:03.450Z,59.80
2022-11-19T14:10:57.778Z,60.32
2022-11-19T14:13:54.531Z,60.96
2022-11-19T14:17:12.860Z,61.58
2022-11-19T14:20:15.431Z,61.31
2022-11-19T14:23:15.114Z,62.43
2022-11-19T14:26:06.554Z,61.73
2022-11-19T14:28:52.977Z,61.04
2022-11-19T14:31:21.363Z,62.63
2022-11-19T14:33:47.714Z,61.96
2022-11-19T14:36:36.141Z,61.71
2022-11-19T14:39:11.946Z,61.96
2022-11-19T14:41:44.619Z,61.29
2022-11-19T14:44:26.563Z,60.82
2022-11-19T14:46:53.101Z,60.58
2022-11-19T14:49:29.380Z,59.60
2022-11-19T14:51:58.037Z,60.08
2022-11-19T14:54:39.624Z,60.61
2022-11-19T14:57:31.997Z,61.29
2022-11-19T15:00:05.036Z,61.54
2022-11-19T15:02:39.883Z,62.10
2022-11-19T15:05:14.661Z,61.13
2022-11-19T15:07:50.074Z,61.17
2022-11-19T15:10:20.784Z,61.79
2022-11-19T15:13:01.324Z,61.55
2022-11-19T15:15:41.965Z,61.78
2022-11-19T15:18:27.236Z,61.29
2022-11-19T15:21:40.448Z,60.97
2022-11-19T15:24:25.103Z,60.23
2022-11-19T15:27:00.763Z,61.17
2022-11-19T15:30:04.939Z,61.28
2022-11-19T15:32:58.921Z,60.91
2022-11-19T15:36:03.387Z,60.82
2022-11-19T15:39:01.337Z,61.10
2022-11-19T15:41:36.536Z,60.91
2022-11-19T15:44:12.296Z,60.70
2022-11-19T15:46:56.309Z,60.80
2022-11-19T15:49:28.169Z,60.89
2022-11-19T15:52:14.618Z,60.57
2022-11-19T15:54:44.408Z,60.28
2022-11-19T15:57:17.040Z,60.03
2022-11-19T15:59:54.193Z,60.18
2022-11-19T16:02:35.183Z,60.39
2022-11-19T16:05:01.730Z,60.21
2022-11-19T16:07:30.286Z,60.39
2022-11-19T16:09:59.248Z,60.41
2022-11-19T16:12:47.094Z,60.74
2022-11-19T16:15:44.137Z,60.35
2022-11-19T16:18:19.613Z,60.82
2022-11-19T16:20:51.371Z,61.03
2022-11-19T16:23:25.197Z,60.28
2022-11-19T16:25:53.244Z,59.98
2022-11-19T16:28:27.568Z,59.54
2022-11-19T16:31:02.919Z,59.96
2022-11-19T16:33:32.273Z,60.38
2022-11-19T16:36:17.872Z,59.78
2022-11-19T16:38:51.425Z,59.89
2022-11-19T16:41:41.572Z,60.43
2022-11-19T16:44:15.936Z,60.47
2022-11-19T16:46:42.955Z,61.06
2022-11-19T16:49:40.002Z,60.24
2022-11-19T16:52:09.825Z,60.75
2022-11-19T16:54:50.252Z,60.83
2022-11-19T16:57:23.778Z,60.53
2022-11-19T16:59:56.071Z,60.05
2022-11-19T17:02:40.164Z,60.22
2022-11-19T17:05:14.467Z,60.58
2022-11-19T17:07:46.049Z,60.61
2022-11-19T17:10:12.473Z,60.95
2022-11-19T17:13:14.610Z,61.07
2022-11-19T17:15:46.968Z,61.39
2022-11-19T17:18:33.172Z,60.76
2022-11-19T17:21:08.253Z,60.47
2022-11-19T17:23:47.806Z,61.10
2022-11-19T17:26:27.328Z,61.32
2022-11-19T17:29:20.439Z,60.69
2022-11-19T17:31:49.154Z,60.74
2022-11-19T17:34:26.004Z,60.51
2022-11-19T17:36:52.474Z,60.65
2022-11-19T17:39:25.008Z,61.38
2022-11-19T17:42:15.197Z,61.33
2022-11-19T17:44:42.118Z,61.97
2022-11-19T17:47:22.316Z,61.17
2022-11-19T17:49:50.924Z,60.90
2022-11-19T17:52:22.565Z,60.51
2022-11-19T17:54:50.361Z,59.89
2022-11-19T17:57:16.874Z,59.86
2022-11-19T17:59:43.424Z,60.77
2022-11-19T18:02:19.306Z,59.98
2022-11-19T18:04:48.166Z,60.27
2022-11-19T18:07:15.768Z,60.62
2022-11-19T18:09:42.396Z,60.46
2022-11-19T18:12:19.044Z,60.17
2022-11-19T18:14:47.417Z,61.48
2022-11-19T18:17:15.481Z,61.60
2022-11-19T18:19:42.274Z,61.55
2022-11-19T18:22:20.476Z,60.78
2022-11-19T18:24:49.321Z,60.73
2022-11-19T18:27:16.931Z,61.08
2022-11-19T18:29:43.651Z,61.38
2022-11-19T18:32:15.877Z,61.21
2022-11-19T18:34:43.760Z,61.68
2022-11-19T18:37:10.689Z,61.57
2022-11-19T18:39:37.727Z,61.33
2022-11-19T18:42:04.375Z,61.23
2022-11-19T18:44:33.582Z,61.06
2022-11-19T18:47:07.769Z,61.27
2022-11-19T18:49:34.934Z,61.68
2022-11-19T18:52:07.345Z,61.32
2022-11-19T18:54:34.233Z,61.44
2022-11-19T18:57:01.051Z,61.66
2022-11-19T18:59:28.008Z,61.07
2022-11-19T19:01:55.612Z,60.76
2022-11-19T19:04:23.199Z,60.65
2022-11-19T19:06:50.147Z,60.51
2022-11-19T19:09:20.345Z,60.35
2022-11-19T19:12:13.067Z,60.72
2022-11-19T19:14:41.516Z,60.77
2022-11-19T19:17:08.149Z,60.19
2022-11-19T19:19:34.633Z,60.52
2022-11-19T19:22:01.687Z,60.65
2022-11-19T19:24:28.221Z,60.70
2022-11-19T19:26:54.740Z,60.73
2022-11-19T19:29:21.615Z,60.42
2022-11-19T19:31:48.359Z,60.45
2022-11-19T19:34:14.869Z,60.42
2022-11-19T19:36:47.656Z,60.20
2022-11-19T19:39:16.731Z,60.17
2022-11-19T19:41:43.311Z,59.47
2022-11-19T19:44:10.351Z,60.11
2022-11-19T19:46:36.992Z,59.88
2022-11-19T19:49:03.659Z,59.75
2022-11-19T19:51:32.499Z,60.48
2022-11-19T19:53:59.739Z,60.23
2022-11-19T19:56:32.656Z,59.45
2022-11-19T19:59:00.978Z,59.94
2022-11-19T20:01:33.908Z,59.54
2022-11-19T20:04:05.178Z,60.19
2022-11-19T20:06:33.038Z,60.01
2022-11-19T20:09:02.038Z,60.09
2022-11-19T20:11:31.164Z,59.91
2022-11-19T20:13:58.560Z,60.67
2022-11-19T20:16:29.556Z,60.68
2022-11-19T20:18:58.476Z,60.55
2022-11-19T20:21:28.628Z,59.80
2022-11-19T20:23:55.409Z,60.66
2022-11-19T20:26:25.798Z,61.09
2022-11-19T20:29:06.893Z,60.99
2022-11-19T20:31:34.669Z,60.59
2022-11-19T20:34:04.934Z,60.78
2022-11-19T20:36:35.212Z,60.38
2022-11-19T20:39:02.243Z,60.61
2022-11-19T20:41:47.782Z,59.59
2022-11-19T20:44:23.243Z,59.49
2022-11-19T20:47:00.872Z,59.55
2022-11-19T20:49:40.869Z,59.54
2022-11-19T20:52:08.135Z,59.60
2022-11-19T20:54:34.691Z,59.87
2022-11-19T20:57:01.426Z,59.71
2022-11-19T20:59:28.505Z,59.20
2022-11-19T21:01:56.984Z,58.65
2022-11-19T21:04:26.977Z,58.85
2022-11-19T21:06:54.147Z,58.71
2022-11-19T21:09:21.551Z,59.04
2022-11-19T21:11:48.486Z,59.07
2022-11-19T21:14:14.956Z,59.05
2022-11-19T21:16:41.419Z,59.45
2022-11-19T21:19:10.433Z,58.97
2022-11-19T21:21:37.255Z,58.73
2022-11-19T21:24:04.020Z,59.14
2022-11-19T21:26:30.935Z,59.41
2022-11-19T21:28:59.434Z,59.26
2022-11-19T21:31:38.624Z,59.25
2022-11-19T21:34:18.003Z,59.07
2022-11-19T21:36:46.127Z,59.15
2022-11-19T21:39:14.617Z,59.34
2022-11-19T21:41:41.153Z,59.24
2022-11-19T21:44:08.063Z,59.34
2022-11-19T21:46:35.760Z,59.37
2022-11-19T21:49:03.011Z,59.32
2022-11-19T21:51:29.632Z,59.66
2022-11-19T21:53:58.259Z,59.76
2022-11-19T21:56:27.420Z,59.53
2022-11-19T21:58:54.057Z,59.46
2022-11-19T22:01:20.929Z,59.76
2022-11-19T22:03:47.713Z,59.93
2022-11-19T22:06:14.240Z,59.99
2022-11-19T22:08:42.403Z,60.30
2022-11-19T22:11:30.278Z,60.74
2022-11-19T22:14:06.812Z,60.58
2022-11-19T22:16:39.908Z,60.54
2022-11-19T22:19:07.088Z,60.64
2022-11-19T22:21:35.018Z,60.89
2022-11-19T22:24:01.955Z,61.12
2022-11-19T22:26:28.522Z,61.08
2022-11-19T22:28:55.693Z,61.51
2022-11-19T22:31:23.266Z,62.03
2022-11-19T22:33:52.132Z,61.96
2022-11-19T22:36:21.268Z,61.69
2022-11-19T22:38:48.412Z,61.80
2022-11-19T22:41:18.340Z,61.32
2022-11-19T22:43:45.449Z,60.96
2022-11-19T22:46:13.495Z,60.56
2022-11-19T22:48:40.673Z,60.53
2022-11-19T22:51:12.579Z,60.83
2022-11-19T22:53:39.816Z,60.71
2022-11-19T22:56:10.252Z,60.74
2022-11-19T22:58:37.678Z,60.36
2022-11-19T23:01:07.157Z,60.06
2022-11-19T23:03:33.821Z,59.97
2022-11-19T23:06:00.338Z,59.50
2022-11-19T23:08:26.957Z,60.14
2022-11-19T23:11:00.201Z,59.79
2022-11-19T23:13:33.866Z,60.06
2022-11-19T23:16:16.117Z,59.49
2022-11-19T23:18:48.408Z,59.75
2022-11-19T23:21:19.614Z,59.21
2022-11-19T23:23:46.806Z,59.46
2022-11-19T23:26:16.585Z,59.97
2022-11-19T23:28:44.660Z,59.35
2022-11-19T23:31:23.613Z,59.21
2022-11-19T23:33:57.502Z,58.61
2022-11-19T23:36:29.740Z,59.53
2022-11-19T23:38:56.408Z,59.35
2022-11-19T23:41:23.888Z,59.82
2022-11-19T23:43:53.231Z,59.52
2022-11-19T23:46:32.594Z,59.04
2022-11-19T23:49:00.271Z,59.23
2022-11-19T23:51:33.685Z,59.73
2022-11-19T23:54:00.882Z,59.25
2022-11-19T23:56:30.779Z,59.33
2022-11-19T23:58:59.492Z,58.84
